Time;durP1;ratioP1;P1;durP2;ratioP2;P2;SDS_P1;SDS_P2;PMS_P1;PMS_P2;Temp;Humidity;BMP_temperature;BMP_pressure;BME280_temperature;BME280_humidity;BME280_pressure;Samples;Min_cycle;Max_cycle;Signal;HPM_P1;HPM_P2
2022/10/14 00:00:35;;;;;;;59.45;7.20;;;9.10;99.90;;;;;;5035861;28;20496;-74
2022/10/14 00:03:01;;;;;;;62.20;6.88;;;9.10;99.90;;;;;;5034698;28;20017;-74
2022/10/14 00:05:27;;;;;;;54.03;7.78;;;9.10;99.90;;;;;;5035866;28;20076;-74
2022/10/14 00:07:52;;;;;;;83.90;7.50;;;9.00;99.90;;;;;;5034406;28;20040;-74
2022/10/14 00:10:18;;;;;;;74.90;6.80;;;9.00;99.90;;;;;;5034399;28;20013;-74
2022/10/14 00:12:44;;;;;;;47.25;7.05;;;9.00;99.90;;;;;;5036238;28;20025;-74
2022/10/14 00:15:10;;;;;;;65.45;7.03;;;9.00;99.90;;;;;;5035635;28;20045;-74
2022/10/14 00:17:36;;;;;;;53.05;6.32;;;9.00;99.90;;;;;;5035684;28;20056;-73
2022/10/14 00:20:02;;;;;;;117.75;8.10;;;9.00;99.90;;;;;;5035381;28;20026;-74
2022/10/14 00:22:27;;;;;;;86.85;7.57;;;9.00;99.90;;;;;;5035612;28;20029;-74
2022/10/14 00:24:53;;;;;;;92.93;8.02;;;9.00;99.90;;;;;;5035991;28;20535;-74
2022/10/14 00:27:19;;;;;;;77.43;7.78;;;9.00;99.90;;;;;;5035436;28;20030;-74
2022/10/14 00:29:44;;;;;;;88.63;8.55;;;9.00;99.90;;;;;;5033972;28;20532;-74
2022/10/14 00:32:10;;;;;;;54.38;6.80;;;9.00;99.90;;;;;;5035330;28;20032;-74
2022/10/14 00:34:35;;;;;;;46.42;6.90;;;9.00;99.90;;;;;;5035327;28;20022;-74
2022/10/14 00:37:01;;;;;;;53.20;6.45;;;9.10;99.90;;;;;;5035313;28;20030;-74
2022/10/14 00:39:27;;;;;;;79.90;8.02;;;9.00;99.90;;;;;;5035169;28;20032;-74
2022/10/14 00:41:52;;;;;;;54.00;6.78;;;9.00;99.90;;;;;;5035091;28;20036;-74
2022/10/14 00:44:18;;;;;;;36.30;7.55;;;9.00;99.90;;;;;;5035125;28;20025;-74
2022/10/14 00:46:46;;;;;;;55.88;8.25;;;9.10;99.90;;;;;;5035083;28;20075;-74
2022/10/14 00:49:30;;;;;;;98.77;8.93;;;9.10;99.90;;;;;;5034088;28;20079;-74
2022/10/14 00:52:02;;;;;;;123.32;9.35;;;9.00;99.90;;;;;;5035025;28;20017;-74
2022/10/14 00:54:36;;;;;;;104.88;9.95;;;9.10;99.90;;;;;;5034989;28;20218;-73
2022/10/14 00:57:02;;;;;;;73.95;8.45;;;9.10;99.90;;;;;;5035508;28;20018;-74
2022/10/14 00:59:28;;;;;;;53.90;8.20;;;9.10;99.90;;;;;;5034863;28;20029;-74
2022/10/14 01:01:54;;;;;;;45.00;8.68;;;9.20;99.90;;;;;;5034768;28;20117;-73
2022/10/14 01:04:20;;;;;;;39.20;8.38;;;9.20;99.90;;;;;;5034326;28;20053;-73
2022/10/14 01:06:51;;;;;;;49.60;9.27;;;9.20;99.90;;;;;;5034747;28;20112;-73
2022/10/14 01:09:29;;;;;;;74.55;11.15;;;9.30;99.90;;;;;;5035140;28;20482;-73
2022/10/14 01:12:19;;;;;;;43.80;9.77;;;9.30;99.90;;;;;;5033401;28;20025;-73
2022/10/14 01:14:52;;;;;;;46.97;10.15;;;9.30;99.90;;;;;;5035120;28;20029;-73
2022/10/14 01:17:25;;;;;;;51.85;10.60;;;9.40;99.90;;;;;;5035353;28;20532;-73
2022/10/14 01:20:35;;;;;;;32.60;10.63;;;9.40;99.90;;;;;;5041930;23;20041;-74
2022/10/14 01:23:01;;;;;;;34.03;10.32;;;9.40;99.90;;;;;;5040096;28;20072;-74
2022/10/14 01:25:42;;;;;;;39.95;10.77;;;9.40;99.90;;;;;;5054550;28;20048;-74
2022/10/14 01:28:39;;;;;;;51.60;11.65;;;9.50;99.90;;;;;;5036329;28;20025;-74
2022/10/14 01:31:16;;;;;;;37.15;11.18;;;9.50;99.90;;;;;;5036320;28;20479;-74
2022/10/14 01:33:44;;;;;;;31.13;11.07;;;9.50;99.90;;;;;;5054237;28;20047;-74
2022/10/14 01:36:28;;;;;;;39.42;10.95;;;9.50;99.90;;;;;;5053985;28;20024;-74
2022/10/14 01:39:01;;;;;;;35.28;11.35;;;9.60;99.90;;;;;;5054106;28;20029;-74
2022/10/14 01:41:42;;;;;;;31.85;10.32;;;9.60;99.90;;;;;;5053887;28;20028;-74
2022/10/14 01:44:10;;;;;;;39.50;10.65;;;9.60;99.90;;;;;;5054060;28;20040;-74
2022/10/14 01:46:39;;;;;;;27.88;9.45;;;9.60;99.90;;;;;;5054033;28;20021;-74
2022/10/14 01:49:09;;;;;;;42.17;11.40;;;9.70;99.90;;;;;;5053768;28;20529;-74
2022/10/14 01:51:42;;;;;;;34.55;11.98;;;9.70;99.90;;;;;;5053724;28;20017;-74
2022/10/14 01:54:13;;;;;;;46.78;11.48;;;9.70;99.90;;;;;;5053829;28;20021;-74
2022/10/14 01:56:42;;;;;;;35.85;10.82;;;9.70;99.90;;;;;;5054290;28;20494;-74
2022/10/14 01:59:11;;;;;;;51.15;12.65;;;9.70;99.90;;;;;;5035746;28;20075;-74
2022/10/14 02:01:36;;;;;;;55.05;13.07;;;9.70;99.90;;;;;;5053571;28;20127;-74
2022/10/14 02:04:03;;;;;;;34.33;12.00;;;;;;;;;;5053584;28;20567;-74
2022/10/14 02:06:36;;;;;;;28.48;10.82;;;9.90;99.90;;;;;;5035688;28;20514;-74
2022/10/14 02:09:21;;;;;;;33.95;12.60;;;9.80;99.90;;;;;;5053475;28;20033;-74
2022/10/14 02:12:09;;;;;;;33.47;12.48;;;9.90;99.90;;;;;;5053539;28;20056;-74
2022/10/14 02:14:42;;;;;;;40.17;12.00;;;9.90;99.90;;;;;;5053452;28;20017;-74
2022/10/14 02:17:32;;;;;;;33.10;12.77;;;9.90;99.90;;;;;;5053398;28;20021;-74
2022/10/14 02:20:03;;;;;;;50.33;12.98;;;10.00;99.90;;;;;;5035956;28;20120;-74
2022/10/14 02:22:28;;;;;;;83.93;13.52;;;10.00;99.90;;;;;;5034768;28;20541;-74
2022/10/14 02:24:58;;;;;;;71.53;13.77;;;10.00;99.90;;;;;;5053249;28;20044;-74
2022/10/14 02:27:27;;;;;;;51.58;13.38;;;10.00;99.90;;;;;;5053559;28;20116;-74
2022/10/14 02:29:54;;;;;;;44.22;12.80;;;10.00;99.90;;;;;;5053766;28;20031;-74
2022/10/14 02:32:23;;;;;;;49.25;12.98;;;10.00;99.90;;;;;;5053440;28;20491;-74
2022/10/14 02:34:52;;;;;;;52.30;13.27;;;10.00;99.90;;;;;;5053205;28;20025;-74
2022/10/14 02:37:19;;;;;;;36.70;13.00;;;10.00;99.90;;;;;;5053182;28;20029;-74
2022/10/14 02:39:55;;;;;;;36.42;12.80;;;10.10;99.90;;;;;;5053065;28;20025;-74
2022/10/14 02:42:21;;;;;;;54.83;15.00;;;10.10;99.90;;;;;;5035254;28;20480;-74
2022/10/14 02:44:54;;;;;;;51.92;14.98;;;10.10;99.90;;;;;;5053629;28;20021;-74
2022/10/14 02:47:20;;;;;;;52.30;12.70;;;10.10;99.90;;;;;;5035181;28;20119;-74
2022/10/14 02:49:46;;;;;;;55.97;13.52;;;10.10;99.90;;;;;;5052847;28;20018;-74
2022/10/14 02:52:11;;;;;;;76.20;12.63;;;10.10;99.90;;;;;;5035113;28;20059;-74
2022/10/14 02:54:37;;;;;;;61.45;13.35;;;10.20;99.90;;;;;;5053442;28;20021;-74
2022/10/14 02:57:02;;;;;;;54.35;13.88;;;10.10;99.90;;;;;;5053444;28;20025;-74
2022/10/14 02:59:28;;;;;;;80.32;12.85;;;10.20;99.90;;;;;;5053113;28;20029;-74
2022/10/14 03:01:54;;;;;;;54.67;14.45;;;10.10;99.90;;;;;;5052757;28;20032;-74
2022/10/14 03:04:19;;;;;;;89.55;15.55;;;10.10;99.90;;;;;;5052965;28;20384;-74
2022/10/14 03:06:45;;;;;;;60.00;13.43;;;10.20;99.90;;;;;;5052846;28;20032;-74
2022/10/14 03:09:10;;;;;;;46.85;13.27;;;10.20;99.90;;;;;;5034949;28;20110;-74
2022/10/14 03:11:36;;;;;;;61.53;14.95;;;10.20;99.90;;;;;;5052783;28;20017;-74
2022/10/14 03:14:01;;;;;;;57.83;14.90;;;10.20;99.90;;;;;;5034985;28;20067;-74
2022/10/14 03:16:27;;;;;;;43.92;14.05;;;10.20;99.90;;;;;;5052777;28;20047;-74
2022/10/14 03:18:52;;;;;;;49.40;13.95;;;10.30;99.90;;;;;;5052742;28;20487;-74
2022/10/14 03:21:18;;;;;;;41.70;14.30;;;10.30;99.90;;;;;;5052697;28;20029;-74
2022/10/14 03:23:43;;;;;;;42.95;14.25;;;10.30;99.90;;;;;;5034953;28;20368;-74
2022/10/14 03:26:09;;;;;;;39.17;13.45;;;10.30;99.90;;;;;;5052653;28;20438;-74
2022/10/14 03:28:34;;;;;;;38.67;14.23;;;10.30;99.90;;;;;;5034711;28;20083;-74
2022/10/14 03:31:00;;;;;;;50.10;14.10;;;10.30;99.90;;;;;;5052588;28;20021;-74
2022/10/14 03:33:26;;;;;;;51.30;14.13;;;10.30;99.90;;;;;;5034762;28;20029;-74
2022/10/14 03:35:51;;;;;;;37.38;13.60;;;10.40;99.90;;;;;;5056380;28;20360;-74
2022/10/14 03:38:17;;;;;;;32.25;13.20;;;10.40;99.90;;;;;;5056288;28;20019;-74
2022/10/14 03:40:43;;;;;;;36.40;12.75;;;10.40;99.90;;;;;;5056499;28;20052;-74
2022/10/14 03:43:08;;;;;;;37.25;12.43;;;11.20;99.90;;;;;;5056741;28;20051;-74
2022/10/14 03:45:34;;;;;;;45.25;13.43;;;10.40;99.90;;;;;;5056182;28;20033;-75
2022/10/14 03:48:00;;;;;;;34.20;13.82;;;10.50;99.90;;;;;;5056180;28;20017;-74
2022/10/14 03:50:26;;;;;;;32.10;13.38;;;10.40;99.90;;;;;;5037982;28;20112;-74
2022/10/14 03:52:52;;;;;;;46.33;13.15;;;10.40;99.90;;;;;;5038155;28;20132;-74
2022/10/14 03:55:18;;;;;;;33.17;11.82;;;10.50;99.90;;;;;;5038140;28;20049;-74
2022/10/14 03:57:43;;;;;;;32.85;13.18;;;10.50;99.90;;;;;;5055996;28;20442;-74
2022/10/14 04:00:10;;;;;;;43.88;13.48;;;10.50;99.90;;;;;;5055869;28;20082;-74
2022/10/14 04:02:35;;;;;;;36.30;13.75;;;10.50;99.90;;;;;;5038316;28;20033;-74
2022/10/14 04:05:01;;;;;;;54.97;13.98;;;10.60;99.90;;;;;;5038027;28;20112;-74
2022/10/14 04:07:27;;;;;;;34.47;13.63;;;;;;;;;;5055779;28;20029;-74
2022/10/14 04:09:53;;;;;;;58.22;13.95;;;10.60;99.90;;;;;;5055532;28;20029;-74
2022/10/14 04:12:18;;;;;;;40.00;13.48;;;10.70;99.90;;;;;;5037817;28;20040;-74
2022/10/14 04:14:44;;;;;;;48.22;13.90;;;10.60;99.90;;;;;;5037768;28;20013;-74
2022/10/14 04:17:09;;;;;;;44.28;14.63;;;11.10;99.90;;;;;;5055569;28;20025;-74
2022/10/14 04:19:35;;;;;;;52.95;13.98;;;10.70;99.90;;;;;;5055328;28;20104;-74
2022/10/14 04:22:00;;;;;;;51.55;14.90;;;10.70;99.90;;;;;;5037889;28;20041;-74
2022/10/14 04:24:26;;;;;;;56.85;17.55;;;10.70;99.90;;;;;;5055455;28;20051;-74
2022/10/14 04:26:51;;;;;;;53.40;16.13;;;10.80;99.90;;;;;;5055389;28;20502;-74
2022/10/14 04:29:17;;;;;;;53.83;14.85;;;10.80;99.90;;;;;;5055252;28;20063;-74
2022/10/14 04:31:43;;;;;;;50.20;15.77;;;10.80;99.90;;;;;;5037408;28;20472;-74
2022/10/14 04:34:10;;;;;;;50.38;16.05;;;10.90;99.90;;;;;;5055260;28;20029;-74
2022/10/14 04:36:37;;;;;;;60.22;15.48;;;10.90;99.90;;;;;;5055319;28;20025;-74
2022/10/14 04:39:03;;;;;;;49.92;15.88;;;10.90;99.90;;;;;;5055249;28;20021;-74
2022/10/14 04:41:29;;;;;;;63.67;15.23;;;10.90;99.90;;;;;;5055155;28;20033;-74
2022/10/14 04:43:54;;;;;;;45.10;15.82;;;10.90;99.90;;;;;;5037172;28;20025;-74
2022/10/14 04:46:20;;;;;;;57.10;15.73;;;11.00;99.90;;;;;;5054149;28;20055;-74
2022/10/14 04:48:49;;;;;;;49.65;16.20;;;11.00;99.90;;;;;;5037043;28;20029;-74
2022/10/14 04:51:14;;;;;;;;;;;11.00;99.90;;;;;;5055344;28;20021;-74
2022/10/14 04:53:40;;;;;;;45.83;16.15;;;11.00;99.90;;;;;;5037116;28;19904;-74
2022/10/14 04:56:06;;;;;;;50.70;15.80;;;11.10;99.90;;;;;;5055421;28;20017;-74
2022/10/14 04:58:31;;;;;;;55.97;16.55;;;11.10;99.90;;;;;;5054753;28;20472;-74
2022/10/14 05:00:57;;;;;;;56.55;17.13;;;11.10;99.90;;;;;;5054793;28;20026;-74
2022/10/14 05:03:23;;;;;;;55.03;15.65;;;11.20;99.90;;;;;;5036848;28;20039;-74
2022/10/14 05:05:50;;;;;;;65.53;17.27;;;11.20;99.90;;;;;;5054727;28;20036;-74
2022/10/14 05:08:16;;;;;;;51.85;16.63;;;11.30;99.90;;;;;;5036991;28;20087;-74
2022/10/14 05:10:41;;;;;;;60.22;17.55;;;11.30;99.90;;;;;;5054469;28;20402;-74
2022/10/14 05:13:07;;;;;;;52.38;16.20;;;11.30;99.90;;;;;;5054612;28;20096;-74
2022/10/14 05:15:35;;;;;;;56.40;17.52;;;11.30;99.90;;;;;;5054407;28;20051;-74
2022/10/14 05:18:01;;;;;;;60.83;18.10;;;11.40;99.90;;;;;;5054985;28;20021;-74
2022/10/14 05:20:27;;;;;;;54.15;19.15;;;11.40;99.90;;;;;;5054140;28;20033;-75
2022/10/14 05:22:52;;;;;;;53.90;17.58;;;11.50;99.90;;;;;;5054298;28;20025;-74
2022/10/14 05:25:18;;;;;;;49.47;17.70;;;11.50;99.90;;;;;;5054306;28;20493;-74
2022/10/14 05:27:43;;;;;;;58.75;18.25;;;11.60;99.90;;;;;;5054266;28;20422;-74
2022/10/14 05:30:09;;;;;;;51.38;17.25;;;11.60;99.90;;;;;;5054031;28;20028;-74
2022/10/14 05:32:35;;;;;;;50.72;17.70;;;11.70;99.90;;;;;;5054211;28;20021;-74
2022/10/14 05:35:01;;;;;;;50.63;16.00;;;11.70;99.90;;;;;;5036173;28;20085;-74
2022/10/14 05:37:30;;;;;;;46.05;16.63;;;11.80;99.90;;;;;;5054057;28;20132;-74
2022/10/14 05:39:55;;;;;;;45.05;16.08;;;11.80;99.90;;;;;;5053925;28;20036;-74
2022/10/14 05:42:21;;;;;;;48.92;16.13;;;12.10;99.90;;;;;;5053922;28;20475;-74
2022/10/14 05:44:46;;;;;;;50.60;15.93;;;11.90;99.90;;;;;;5036144;28;20484;-74
2022/10/14 05:47:12;;;;;;;43.53;15.73;;;11.90;99.90;;;;;;5036129;28;20021;-74
2022/10/14 05:49:37;;;;;;;46.50;15.60;;;11.90;99.90;;;;;;5035760;28;20387;-76
2022/10/14 05:52:04;;;;;;;46.92;15.30;;;11.90;99.90;;;;;;5053683;28;20541;-74
2022/10/14 05:54:33;;;;;;;44.90;14.02;;;12.00;99.90;;;;;;5053647;28;20021;-75
2022/10/14 05:57:02;;;;;;;37.08;14.65;;;12.00;99.90;;;;;;5053777;28;20086;-73
2022/10/14 05:59:28;;;;;;;;;;;11.90;99.90;;;;;;5036011;28;20024;-75
2022/10/14 06:01:55;;;;;;;36.30;13.07;;;12.00;99.90;;;;;;5035607;28;19905;-75
2022/10/14 06:04:22;;;;;;;33.58;11.77;;;12.10;99.90;;;;;;5035684;28;20025;-75
2022/10/14 06:06:47;;;;;;;31.27;12.32;;;12.10;99.90;;;;;;5053471;28;20036;-76
2022/10/14 06:09:13;;;;;;;32.00;10.75;;;12.10;99.90;;;;;;5053428;28;20024;-75
2022/10/14 06:11:39;;;;;;;28.33;10.95;;;12.10;99.90;;;;;;5053397;28;20070;-75
2022/10/14 06:14:05;;;;;;;29.42;10.70;;;12.20;99.90;;;;;;5053508;28;20025;-75
2022/10/14 06:16:31;;;;;;;31.02;10.38;;;12.20;99.90;;;;;;5053314;28;20384;-75
2022/10/14 06:18:56;;;;;;;25.17;10.52;;;12.30;99.90;;;;;;5053279;28;20107;-74
2022/10/14 06:21:22;;;;;;;26.45;10.82;;;12.30;99.90;;;;;;5053315;28;20036;-74
2022/10/14 06:23:48;;;;;;;25.67;9.80;;;12.30;99.90;;;;;;5053232;28;20029;-75
2022/10/14 06:26:13;;;;;;;24.92;10.00;;;12.30;99.90;;;;;;5053163;28;20029;-75
2022/10/14 06:28:39;;;;;;;28.95;10.23;;;12.30;99.90;;;;;;5053273;28;20032;-75
2022/10/14 06:31:05;;;;;;;23.63;9.18;;;12.30;99.90;;;;;;5053170;28;20435;-75
2022/10/14 06:33:31;;;;;;;25.38;9.80;;;12.40;99.90;;;;;;5053158;28;20048;-75
2022/10/14 06:35:57;;;;;;;20.08;8.48;;;12.40;99.90;;;;;;5053140;28;20020;-75
2022/10/14 06:38:23;;;;;;;25.00;8.52;;;12.40;99.90;;;;;;5053182;28;20021;-75
2022/10/14 06:40:53;;;;;;;22.30;8.77;;;12.40;99.90;;;;;;5035122;28;20059;-75
2022/10/14 06:43:20;;;;;;;18.63;7.68;;;12.50;99.90;;;;;;5035152;28;20021;-75
2022/10/14 06:45:46;;;;;;;22.88;7.63;;;12.50;99.90;;;;;;5053044;28;20017;-75
2022/10/14 06:48:11;;;;;;;22.55;7.57;;;12.50;99.90;;;;;;5053021;28;20403;-74
2022/10/14 06:50:37;;;;;;;14.80;6.90;;;12.60;99.90;;;;;;5052945;28;20060;-75
2022/10/14 06:53:02;;;;;;;17.08;7.80;;;12.60;99.90;;;;;;5035137;28;20029;-75
2022/10/14 06:55:28;;;;;;;16.13;7.40;;;12.60;99.90;;;;;;5035187;28;20025;-74
2022/10/14 06:57:54;;;;;;;13.45;6.38;;;12.60;99.90;;;;;;5053040;28;20387;-74
2022/10/14 07:00:20;;;;;;;15.23;6.32;;;12.70;99.90;;;;;;5053313;28;20384;-75
2022/10/14 07:02:45;;;;;;;13.07;6.05;;;12.70;99.90;;;;;;5052973;28;20032;-75
2022/10/14 07:05:11;;;;;;;13.77;6.30;;;12.70;99.90;;;;;;5052854;28;20472;-75
2022/10/14 07:07:37;;;;;;;16.27;5.85;;;12.70;99.90;;;;;;5053369;28;20104;-75
2022/10/14 07:10:03;;;;;;;14.02;6.47;;;12.80;99.90;;;;;;5037481;28;20107;-75
2022/10/14 07:12:28;;;;;;;9.75;5.20;;;12.80;99.90;;;;;;5038929;28;20108;-75
2022/10/14 07:14:54;;;;;;;12.80;6.38;;;12.80;99.90;;;;;;5038947;28;20013;-75
2022/10/14 07:17:20;;;;;;;10.63;4.95;;;12.80;99.90;;;;;;5056731;28;20017;-75
2022/10/14 07:19:45;;;;;;;12.23;5.28;;;12.90;99.90;;;;;;5056341;28;20025;-74
2022/10/14 07:22:11;;;;;;;13.50;5.78;;;12.90;99.90;;;;;;5056655;28;20115;-74
2022/10/14 07:24:36;;;;;;;11.45;5.35;;;12.90;99.90;;;;;;5038682;28;20372;-74
2022/10/14 07:27:02;;;;;;;12.43;5.88;;;12.90;99.90;;;;;;5038666;28;20057;-75
2022/10/14 07:29:28;;;;;;;11.50;5.40;;;13.00;99.90;;;;;;5056463;28;20024;-75
2022/10/14 07:31:54;;;;;;;11.52;5.45;;;13.00;99.90;;;;;;5056317;28;20036;-74
2022/10/14 07:34:19;;;;;;;11.80;5.43;;;13.00;99.90;;;;;;5038544;28;20029;-74
2022/10/14 07:36:45;;;;;;;13.48;5.63;;;13.10;99.90;;;;;;5038489;28;20052;-75
2022/10/14 07:39:10;;;;;;;12.13;5.90;;;13.10;99.90;;;;;;5038410;28;20017;-75
2022/10/14 07:41:37;;;;;;;17.88;6.45;;;13.10;99.90;;;;;;5056228;28;20029;-75
2022/10/14 07:44:07;;;;;;;14.85;6.47;;;13.10;99.90;;;;;;5038347;28;20033;-75
2022/10/14 07:46:35;;;;;;;14.50;6.75;;;13.10;99.90;;;;;;5056265;28;20477;-74
2022/10/14 07:49:03;;;;;;;15.75;7.30;;;13.10;99.90;;;;;;5038243;28;20111;-74
2022/10/14 07:51:29;;;;;;;17.98;7.63;;;13.10;99.90;;;;;;5056135;28;20017;-75
2022/10/14 07:53:56;;;;;;;17.33;6.85;;;13.20;99.90;;;;;;5038174;28;20013;-75
2022/10/14 07:56:22;;;;;;;18.90;7.25;;;13.20;99.90;;;;;;5056080;28;20398;-75
2022/10/14 07:58:48;;;;;;;16.20;7.32;;;13.40;99.90;;;;;;5056048;28;20032;-75
2022/10/14 08:01:15;;;;;;;19.73;7.53;;;13.20;99.90;;;;;;5055880;28;20021;-75
2022/10/14 08:03:42;;;;;;;21.00;7.53;;;13.30;99.90;;;;;;5038015;28;20188;-75
2022/10/14 08:06:08;;;;;;;16.98;7.75;;;13.30;99.90;;;;;;5055813;28;20087;-75
2022/10/14 08:08:34;;;;;;;22.23;8.95;;;13.40;99.90;;;;;;5056250;28;20025;-75
2022/10/14 08:11:06;;;;;;;23.67;9.07;;;13.40;99.90;;;;;;5037874;28;20025;-75
2022/10/14 08:13:33;;;;;;;26.95;10.15;;;13.40;99.90;;;;;;5037861;28;20025;-75
2022/10/14 08:15:58;;;;;;;23.08;9.95;;;13.40;99.90;;;;;;5055666;28;20064;-74
2022/10/14 08:18:25;;;;;;;23.83;9.95;;;13.40;99.90;;;;;;5056123;28;20051;-74
2022/10/14 08:20:51;;;;;;;25.70;10.15;;;13.50;99.90;;;;;;5036185;28;20498;-74
2022/10/14 08:23:16;;;;;;;28.75;10.20;;;13.50;99.90;;;;;;5055537;28;20025;-74
2022/10/14 08:25:43;;;;;;;25.75;10.05;;;13.50;99.90;;;;;;5037583;28;20476;-75
2022/10/14 08:28:09;;;;;;;29.38;11.00;;;13.50;99.90;;;;;;5037460;28;20501;-75
2022/10/14 08:30:34;;;;;;;28.05;11.82;;;13.60;99.90;;;;;;5055213;28;20044;-75
2022/10/14 08:33:00;;;;;;;33.33;11.75;;;13.60;99.90;;;;;;5037713;28;20017;-75
2022/10/14 08:35:26;;;;;;;33.75;11.15;;;13.60;99.90;;;;;;5055258;28;20029;-75
2022/10/14 08:37:59;;;;;;;29.80;10.55;;;13.60;99.90;;;;;;5037399;28;20056;-74
2022/10/14 08:40:27;;;;;;;30.42;11.90;;;13.60;99.90;;;;;;5055181;28;20021;-75
2022/10/14 08:43:41;;;;;;;30.80;12.55;;;13.60;99.90;;;;;;5037606;28;20079;-74
2022/10/14 08:46:26;;;;;;;25.45;10.25;;;13.70;99.90;;;;;;5016047;28;20604;-75
2022/10/14 08:49:04;;;;;;;34.40;11.20;;;13.80;99.90;;;;;;5037132;28;20035;-75
2022/10/14 08:51:31;;;;;;;26.60;11.32;;;13.80;99.90;;;;;;5055113;28;20120;-75
2022/10/14 08:54:05;;;;;;;23.63;10.73;;;13.90;99.90;;;;;;5037098;28;20025;-75
2022/10/14 08:56:32;;;;;;;25.65;11.23;;;13.90;99.90;;;;;;5055467;28;20379;-75
2022/10/14 08:59:03;;;;;;;24.00;9.70;;;14.00;99.90;;;;;;5037439;28;20025;-75
2022/10/14 09:01:38;;;;;;;24.35;10.13;;;14.00;99.90;;;;;;5055004;28;20039;-75
2022/10/14 09:04:06;;;;;;;25.23;9.60;;;14.10;99.90;;;;;;5036946;28;20021;-74
2022/10/14 09:06:39;;;;;;;17.08;9.23;;;14.10;99.90;;;;;;5036867;28;20025;-74
2022/10/14 09:09:11;;;;;;;16.67;8.05;;;14.20;99.90;;;;;;5054555;28;20104;-75
2022/10/14 09:11:44;;;;;;;16.90;8.48;;;14.10;99.90;;;;;;5055132;28;20496;-75
2022/10/14 09:14:17;;;;;;;19.40;8.60;;;14.20;99.90;;;;;;5036728;28;20025;-75
2022/10/14 09:16:45;;;;;;;18.48;8.68;;;14.20;99.90;;;;;;5055064;28;20021;-75
2022/10/14 09:19:21;;;;;;;16.27;8.00;;;14.20;99.90;;;;;;5054554;28;20017;-74
2022/10/14 09:21:52;;;;;;;15.65;7.85;;;14.20;99.90;;;;;;5036449;28;20078;-74
2022/10/14 09:24:35;;;;;;;17.08;8.10;;;14.30;99.90;;;;;;5036444;28;20025;-74
2022/10/14 09:27:21;;;;;;;14.95;7.63;;;14.30;99.90;;;;;;5054325;28;20079;-75
2022/10/14 09:29:55;;;;;;;15.68;6.82;;;14.30;99.90;;;;;;5054167;28;20032;-74
2022/10/14 09:32:30;;;;;;;14.20;7.45;;;14.30;99.90;;;;;;5053912;28;20017;-75
2022/10/14 09:34:57;;;;;;;15.82;7.18;;;14.30;99.90;;;;;;5054210;28;20400;-75
2022/10/14 09:37:28;;;;;;;18.25;7.53;;;14.40;99.90;;;;;;5054206;28;20024;-75
2022/10/14 09:40:05;;;;;;;14.90;7.55;;;14.40;99.90;;;;;;5054049;28;20029;-75
2022/10/14 09:42:51;;;;;;;16.05;7.50;;;14.40;99.90;;;;;;5054120;28;20460;-74
2022/10/14 09:45:22;;;;;;;15.93;6.93;;;14.50;99.90;;;;;;5036201;28;20036;-75
2022/10/14 09:47:58;;;;;;;14.57;7.43;;;14.50;99.90;;;;;;5054011;28;20021;-75
2022/10/14 09:50:39;;;;;;;13.40;6.88;;;14.50;99.90;;;;;;5035985;28;20021;-75
2022/10/14 09:53:37;;;;;;;16.23;7.13;;;14.50;99.90;;;;;;5053884;28;20438;-75
2022/10/14 09:56:09;;;;;;;12.95;6.72;;;14.50;99.90;;;;;;5035431;28;20067;-75
2022/10/14 09:58:42;;;;;;;15.13;7.20;;;14.50;99.90;;;;;;5053805;28;20045;-75
2022/10/14 10:01:14;;;;;;;12.20;6.47;;;14.60;99.90;;;;;;5053924;28;20061;-75
2022/10/14 10:03:40;;;;;;;9.25;5.75;;;14.60;99.90;;;;;;5054166;28;20017;-75
2022/10/14 10:06:15;;;;;;;14.77;6.53;;;14.60;99.90;;;;;;5036075;28;20435;-75
2022/10/14 10:09:00;;;;;;;13.57;6.15;;;14.70;99.90;;;;;;5053387;28;20033;-75
2022/10/14 10:11:32;;;;;;;12.45;6.18;;;14.70;99.90;;;;;;5036164;28;20131;-75
2022/10/14 10:13:58;;;;;;;14.40;6.53;;;14.80;99.90;;;;;;5053496;28;20021;-75
2022/10/14 10:16:33;;;;;;;13.95;6.10;;;14.90;99.90;;;;;;5053379;28;20021;-75
2022/10/14 10:19:25;;;;;;;11.13;5.40;;;14.90;99.90;;;;;;5054011;28;20017;-75
2022/10/14 10:21:51;;;;;;;11.35;4.88;;;15.00;99.90;;;;;;5053207;28;20044;-75
2022/10/14 10:24:22;;;;;;;9.45;4.65;;;14.80;99.90;;;;;;5053267;28;20029;-75
2022/10/14 10:26:48;;;;;;;8.38;4.60;;;14.80;99.90;;;;;;5053326;28;20496;-75
2022/10/14 10:29:30;;;;;;;11.07;4.47;;;14.70;99.90;;;;;;5035228;28;20024;-75
2022/10/14 10:32:17;;;;;;;9.30;5.38;;;14.70;99.90;;;;;;5053776;28;20025;-75
2022/10/14 10:34:53;;;;;;;9.50;4.78;;;14.70;99.90;;;;;;5035291;28;20060;-75
2022/10/14 10:37:27;;;;;;;11.48;4.43;;;14.80;99.90;;;;;;5053173;28;20033;-75
2022/10/14 10:40:05;;;;;;;6.80;3.90;;;14.80;99.90;;;;;;5035259;28;20048;-75
2022/10/14 10:42:38;;;;;;;8.77;5.00;;;14.80;99.90;;;;;;5053388;28;20021;-75
2022/10/14 10:45:22;;;;;;;8.32;4.13;;;14.70;99.90;;;;;;5052320;28;20433;-75
2022/10/14 10:48:00;;;;;;;6.93;4.13;;;14.80;99.90;;;;;;5053660;28;20476;-75
2022/10/14 10:51:10;;;;;;;6.32;3.40;;;14.80;99.90;;;;;;5052975;28;20399;-75
2022/10/14 10:54:03;;;;;;;7.60;3.60;;;14.80;99.90;;;;;;4998140;28;20116;-75
2022/10/14 10:56:51;;;;;;;5.50;2.92;;;14.80;99.90;;;;;;5053611;28;20099;-75
2022/10/14 10:59:36;;;;;;;6.05;2.65;;;14.90;99.90;;;;;;5053003;28;20033;-75
2022/10/14 11:02:32;;;;;;;5.82;3.00;;;14.90;99.90;;;;;;5053526;28;20029;-76
2022/10/14 11:05:28;;;;;;;5.05;2.80;;;14.90;99.90;;;;;;5035131;28;20071;-75
2022/10/14 11:14:33;;;;;;;4.07;2.30;;;14.90;99.90;;;;;;5053768;28;20108;-75
2022/10/14 11:17:00;;;;;;;5.78;2.78;;;14.90;99.90;;;;;;5053271;28;20423;-75
2022/10/14 11:19:46;;;;;;;2.55;1.88;;;14.90;99.90;;;;;;5034869;28;20075;-74
2022/10/14 11:22:27;;;;;;;5.45;2.60;;;15.00;99.90;;;;;;5052696;28;20048;-74
2022/10/14 11:25:22;;;;;;;4.30;3.00;;;15.00;99.90;;;;;;5053243;28;20021;-74
2022/10/14 11:27:56;;;;;;;4.93;2.70;;;15.00;99.90;;;;;;5053199;28;20021;-73
2022/10/14 11:30:37;;;;;;;3.83;2.17;;;15.00;99.90;;;;;;5052521;28;20032;-73
2022/10/14 11:33:34;;;;;;;3.35;1.95;;;15.10;99.90;;;;;;5052671;28;20017;-73
2022/10/14 11:36:09;;;;;;;3.93;2.20;;;15.10;99.90;;;;;;4981548;28;20060;-75
2022/10/14 11:38:47;;;;;;;3.20;2.25;;;15.10;99.90;;;;;;5034687;28;20283;-75
2022/10/14 11:41:21;;;;;;;3.40;1.70;;;15.20;99.90;;;;;;5052604;28;20021;-73
2022/10/14 11:43:57;;;;;;;3.08;2.03;;;15.20;99.90;;;;;;5052686;28;20029;-73
2022/10/14 11:46:27;;;;;;;2.10;1.67;;;15.30;99.90;;;;;;5052539;28;20104;-73
2022/10/14 11:49:02;;;;;;;3.45;1.90;;;15.30;99.90;;;;;;5034646;28;20021;-73
2022/10/14 11:51:36;;;;;;;3.58;1.83;;;15.40;99.90;;;;;;5052423;28;20032;-73
2022/10/14 11:54:15;;;;;;;2.83;1.80;;;15.40;99.90;;;;;;5034608;28;20029;-73
2022/10/14 11:56:58;;;;;;;2.97;1.60;;;15.50;99.90;;;;;;5037659;28;20071;-73
2022/10/14 11:59:48;;;;;;;4.68;1.33;;;15.60;99.90;;;;;;5055972;28;20108;-73
2022/10/14 12:02:38;;;;;;;2.45;1.00;;;15.60;99.90;;;;;;5055900;28;20055;-73
2022/10/14 12:05:23;;;;;;;1.65;1.23;;;15.50;99.90;;;;;;5038108;28;20100;-73
2022/10/14 12:08:02;;;;;;;2.13;1.48;;;15.50;99.90;;;;;;5055033;28;20562;-73
2022/10/14 12:10:34;;;;;;;2.35;1.60;;;15.60;99.90;;;;;;5055632;28;20051;-73
2022/10/14 12:13:00;;;;;;;1.45;1.10;;;15.60;99.90;;;;;;5055796;28;20032;-73
2022/10/14 12:15:28;;;;;;;2.10;1.50;;;15.50;99.90;;;;;;5055664;28;20013;-73
2022/10/14 12:18:00;;;;;;;2.63;1.70;;;15.50;99.90;;;;;;5056200;28;20491;-73
2022/10/14 12:20:34;;;;;;;2.63;1.73;;;15.50;99.90;;;;;;5055416;28;20551;-73
2022/10/14 12:23:03;;;;;;;2.33;1.40;;;15.50;99.90;;;;;;5037698;28;20032;-73
2022/10/14 12:25:37;;;;;;;;;;;15.50;99.90;;;;;;5055953;28;20029;-73
2022/10/14 12:28:03;;;;;;;1.63;1.10;;;15.50;99.90;;;;;;5055458;28;20390;-73
2022/10/14 12:30:38;;;;;;;3.97;1.20;;;15.50;99.90;;;;;;5055230;28;20419;-73
2022/10/14 12:33:10;;;;;;;3.55;0.98;;;15.50;99.90;;;;;;5055950;28;20048;-73
2022/10/14 12:35:58;;;;;;;1.77;0.82;;;15.50;99.90;;;;;;5055338;28;20028;-73
2022/10/14 12:38:28;;;;;;;2.80;1.05;;;15.40;99.90;;;;;;5055922;28;20017;-73
2022/10/14 12:41:17;;;;;;;2.58;1.23;;;15.40;99.90;;;;;;5055117;28;20096;-73
2022/10/14 12:43:56;;;;;;;;;;;15.40;99.90;;;;;;5055558;28;20456;-73
2022/10/14 12:46:22;;;;;;;2.80;1.80;;;15.40;99.90;;;;;;5055722;28;19911;-73
2022/10/14 12:48:50;;;;;;;4.35;1.88;;;15.50;99.90;;;;;;5054920;28;20033;-73
2022/10/14 12:51:22;;;;;;;3.83;1.83;;;15.60;99.90;;;;;;5037073;28;20483;-73
2022/10/14 12:54:06;;;;;;;3.50;2.08;;;15.70;99.90;;;;;;5055027;28;20476;-73
2022/10/14 12:56:36;;;;;;;3.13;1.70;;;15.70;99.90;;;;;;5055512;28;20021;-73
2022/10/14 12:59:05;;;;;;;3.47;1.98;;;15.70;99.90;;;;;;5054847;28;20049;-73
2022/10/14 13:01:31;;;;;;;4.75;2.10;;;15.70;99.90;;;;;;5054757;28;20072;-73